Time;durP1;ratioP1;P1;durP2;ratioP2;P2;SDS_P1;SDS_P2;PMS_P1;PMS_P2;Temp;Humidity;BMP_temperature;BMP_pressure;BME280_temperature;BME280_humidity;BME280_pressure;Samples;Min_cycle;Max_cycle;Signal;HPM_P1;HPM_P2
2021/12/03 00:02:18;;;;;;;2.92;1.90;;;2.70;99.90;;;;;;5022391;28;20132;-58
2021/12/03 00:04:45;;;;;;;3.03;1.77;;;2.70;99.90;;;;;;5019541;28;20067;-57
2021/12/03 00:07:12;;;;;;;4.63;1.50;;;2.70;99.90;;;;;;5021633;28;20465;-58
2021/12/03 00:09:39;;;;;;;7.93;1.67;;;2.80;99.90;;;;;;5021999;28;20136;-56
2021/12/03 00:12:06;;;;;;;2.72;1.45;;;2.80;99.90;;;;;;5021078;28;20061;-58
2021/12/03 00:14:34;;;;;;;3.22;1.48;;;2.80;99.90;;;;;;5020210;28;20555;-57
2021/12/03 00:17:01;;;;;;;2.97;1.30;;;2.90;99.90;;;;;;5020583;28;20084;-59
2021/12/03 00:19:29;;;;;;;4.32;1.65;;;2.90;99.90;;;;;;5017919;28;20944;-57
2021/12/03 00:21:55;;;;;;;1.90;0.90;;;2.90;99.90;;;;;;5019370;28;20140;-58
2021/12/03 00:24:22;;;;;;;3.33;1.15;;;2.90;99.90;;;;;;5022094;28;20070;-57
2021/12/03 00:26:49;;;;;;;2.75;1.02;;;3.00;99.90;;;;;;5022855;28;20437;-57
2021/12/03 00:29:16;;;;;;;2.70;1.27;;;3.00;99.90;;;;;;5022228;28;20045;-58
2021/12/03 00:31:43;;;;;;;2.42;1.35;;;3.00;99.90;;;;;;5023685;28;20595;-57
2021/12/03 00:34:10;;;;;;;2.03;1.05;;;3.00;99.90;;;;;;5020568;28;20055;-57
2021/12/03 00:36:37;;;;;;;3.20;0.95;;;3.10;99.90;;;;;;5022824;28;20080;-57
2021/12/03 00:39:04;;;;;;;2.17;0.82;;;3.10;99.90;;;;;;5022679;28;20188;-58
2021/12/03 00:41:41;;;;;;;1.80;0.85;;;3.20;99.90;;;;;;5022407;28;20079;-58
2021/12/03 00:44:08;;;;;;;2.80;1.05;;;3.20;99.90;;;;;;5020668;28;20053;-58
2021/12/03 00:46:34;;;;;;;2.78;1.10;;;3.10;99.90;;;;;;5022162;28;20122;-58
2021/12/03 00:49:01;;;;;;;1.25;0.80;;;3.20;99.90;;;;;;5020645;28;20081;-58
2021/12/03 00:51:28;;;;;;;2.80;1.00;;;3.20;99.90;;;;;;5020990;28;20096;-58
2021/12/03 00:53:55;;;;;;;2.22;1.27;;;3.20;99.90;;;;;;5020886;28;20104;-58
2021/12/03 00:56:22;;;;;;;1.55;0.73;;;3.20;99.90;;;;;;5022909;28;20190;-58
2021/12/03 00:58:49;;;;;;;1.08;0.63;;;3.20;99.90;;;;;;5019929;28;20114;-58
2021/12/03 01:01:16;;;;;;;1.80;1.20;;;3.20;99.90;;;;;;5020857;28;20049;-58
2021/12/03 01:03:43;;;;;;;2.10;0.73;;;3.20;99.90;;;;;;5021623;28;20053;-56
2021/12/03 01:06:10;;;;;;;1.70;0.73;;;3.30;99.90;;;;;;5022534;28;20889;-58
2021/12/03 01:08:37;;;;;;;0.93;0.80;;;3.30;99.90;;;;;;5021223;28;20061;-58
2021/12/03 01:11:05;;;;;;;1.83;0.80;;;3.30;99.90;;;;;;5022099;28;20160;-58
2021/12/03 01:13:32;;;;;;;2.70;1.13;;;3.30;99.90;;;;;;5019504;28;20061;-58
2021/12/03 01:15:59;;;;;;;2.78;1.00;;;3.30;99.90;;;;;;5020690;28;20050;-58
2021/12/03 01:18:25;;;;;;;1.23;0.82;;;3.30;99.90;;;;;;5021527;28;20061;-58
2021/12/03 01:20:52;;;;;;;1.60;0.88;;;3.30;99.90;;;;;;5021117;28;20144;-58
2021/12/03 01:23:19;;;;;;;1.58;0.73;;;3.30;99.90;;;;;;5021812;28;20203;-58
2021/12/03 01:25:46;;;;;;;2.85;1.13;;;3.30;99.90;;;;;;5022051;28;20132;-59
2021/12/03 01:28:13;;;;;;;1.48;0.95;;;3.30;99.90;;;;;;5021959;28;20621;-59
2021/12/03 01:30:40;;;;;;;5.50;1.10;;;3.30;99.90;;;;;;5021277;28;20578;-58
2021/12/03 01:33:07;;;;;;;1.25;0.55;;;3.40;99.90;;;;;;5022017;28;20160;-58
2021/12/03 01:35:35;;;;;;;5.30;1.08;;;3.30;99.90;;;;;;5021294;28;20084;-59
2021/12/03 01:38:03;;;;;;;1.50;0.70;;;3.40;99.90;;;;;;5021159;28;20404;-58
2021/12/03 01:40:30;;;;;;;3.15;0.90;;;3.40;99.90;;;;;;5022196;28;20147;-58
2021/12/03 01:42:58;;;;;;;4.88;1.20;;;3.30;99.90;;;;;;5020371;28;20092;-58
2021/12/03 01:45:28;;;;;;;4.40;0.93;;;3.40;99.90;;;;;;5021435;28;20050;-59
2021/12/03 01:47:55;;;;;;;1.92;1.45;;;3.40;99.80;;;;;;5022449;28;20069;-59
2021/12/03 01:50:24;;;;;;;1.95;0.85;;;3.40;99.60;;;;;;5024473;28;20157;-58
2021/12/03 01:52:50;;;;;;;2.92;0.90;;;3.40;99.70;;;;;;5025100;28;20498;-59
2021/12/03 01:55:17;;;;;;;1.73;0.90;;;3.40;99.40;;;;;;5024160;28;20876;-58
2021/12/03 01:57:44;;;;;;;1.25;0.80;;;3.50;99.30;;;;;;5024921;28;20153;-58
2021/12/03 02:00:38;;;;;;;2.72;1.00;;;3.50;99.00;;;;;;5024198;28;20064;-58
2021/12/03 02:03:06;;;;;;;2.38;1.25;;;3.60;98.70;;;;;;5025440;28;20405;-58
2021/12/03 02:05:33;;;;;;;2.25;0.90;;;3.60;98.40;;;;;;5024669;28;20085;-58
2021/12/03 02:08:00;;;;;;;1.98;0.88;;;3.60;98.30;;;;;;5025491;28;20085;-59
2021/12/03 02:10:26;;;;;;;2.55;1.17;;;3.60;98.40;;;;;;5023549;28;20547;-58
2021/12/03 02:12:55;;;;;;;3.05;1.27;;;3.70;98.30;;;;;;5024350;28;20195;-57
2021/12/03 02:15:21;;;;;;;3.55;1.00;;;3.70;98.10;;;;;;5021042;28;20454;-58
2021/12/03 02:17:49;;;;;;;1.58;0.90;;;3.70;98.20;;;;;;5025187;28;20413;-59
2021/12/03 02:20:16;;;;;;;2.85;1.00;;;3.70;98.20;;;;;;5023984;28;20884;-59
2021/12/03 02:22:43;;;;;;;2.90;1.33;;;3.70;98.30;;;;;;5025259;28;20053;-59
2021/12/03 02:25:13;;;;;;;2.35;1.25;;;3.70;98.30;;;;;;5023549;28;20081;-59
2021/12/03 02:27:40;;;;;;;4.55;1.90;;;3.70;98.50;;;;;;5025042;28;20045;-58
2021/12/03 02:30:08;;;;;;;5.07;1.20;;;3.70;98.50;;;;;;5024098;28;20107;-58
2021/12/03 02:32:34;;;;;;;3.28;1.38;;;3.70;98.50;;;;;;5020957;28;20144;-59
2021/12/03 02:35:01;;;;;;;3.33;1.35;;;3.70;98.60;;;;;;5013103;28;20240;-58
2021/12/03 02:37:28;;;;;;;2.17;1.10;;;3.70;98.70;;;;;;5026433;28;20088;-53
2021/12/03 02:39:55;;;;;;;3.05;1.02;;;3.70;98.90;;;;;;5026212;28;20077;-58
2021/12/03 02:42:21;;;;;;;3.05;1.10;;;3.70;99.00;;;;;;5024560;28;20084;-59
2021/12/03 02:44:48;;;;;;;3.67;1.70;;;3.80;98.90;;;;;;5025868;28;20085;-58
2021/12/03 02:47:15;;;;;;;2.17;1.10;;;3.80;99.30;;;;;;5026719;28;20141;-58
2021/12/03 02:49:42;;;;;;;2.65;1.30;;;3.80;99.90;;;;;;5025804;28;20077;-58
2021/12/03 02:52:09;;;;;;;1.88;0.82;;;3.70;99.90;;;;;;5025833;28;20573;-58
2021/12/03 02:54:35;;;;;;;3.30;1.02;;;3.70;99.90;;;;;;5025798;28;20073;-59
2021/12/03 02:57:03;;;;;;;3.15;1.10;;;3.70;99.90;;;;;;5026626;28;20091;-59
2021/12/03 02:59:32;;;;;;;1.70;0.85;;;3.70;99.90;;;;;;5023307;28;20050;-58
2021/12/03 03:02:02;;;;;;;1.07;0.80;;;3.60;99.90;;;;;;5026146;28;20088;-57
2021/12/03 03:04:49;;;;;;;0.93;0.75;;;3.70;99.90;;;;;;5025477;28;20064;-57
2021/12/03 03:07:16;;;;;;;0.60;0.60;;;3.70;99.90;;;;;;5025960;28;20057;-58
2021/12/03 03:09:44;;;;;;;1.45;0.60;;;3.70;99.90;;;;;;5025771;28;20128;-58
2021/12/03 03:12:12;;;;;;;1.63;0.60;;;3.70;99.90;;;;;;5025526;28;20049;-58
2021/12/03 03:14:56;;;;;;;1.25;0.52;;;3.70;99.90;;;;;;5024428;28;20635;-61
2021/12/03 03:17:24;;;;;;;0.88;0.60;;;3.70;99.90;;;;;;5026454;28;20139;-58
2021/12/03 03:19:52;;;;;;;1.30;0.70;;;3.70;99.90;;;;;;5025073;28;20049;-59
2021/12/03 03:22:19;;;;;;;0.85;0.43;;;3.70;99.90;;;;;;5026017;28;20045;-59
2021/12/03 03:24:46;;;;;;;0.50;0.40;;;3.70;99.90;;;;;;5025171;28;20085;-57
2021/12/03 03:27:14;;;;;;;0.63;0.50;;;3.70;99.90;;;;;;5025960;28;20049;-58
2021/12/03 03:29:42;;;;;;;2.83;0.65;;;3.70;99.90;;;;;;5008694;28;20088;-59
2021/12/03 03:32:09;;;;;;;0.77;0.70;;;3.70;99.90;;;;;;5026923;28;20643;-57
2021/12/03 03:34:36;;;;;;;1.83;0.77;;;3.60;99.90;;;;;;5026078;28;20089;-58
2021/12/03 03:37:03;;;;;;;1.08;0.50;;;3.70;99.90;;;;;;5027545;28;20088;-58
2021/12/03 03:39:30;;;;;;;0.60;0.47;;;3.70;99.90;;;;;;5027404;28;20136;-58
2021/12/03 03:41:57;;;;;;;1.15;0.65;;;3.70;99.90;;;;;;5026798;28;20046;-57
2021/12/03 03:44:23;;;;;;;0.85;0.52;;;3.70;99.90;;;;;;5024081;28;20045;-58
2021/12/03 03:46:51;;;;;;;1.15;0.70;;;3.70;99.90;;;;;;5027335;28;20141;-58
2021/12/03 03:49:19;;;;;;;1.40;0.70;;;3.70;99.90;;;;;;5026403;28;20084;-58
2021/12/03 03:51:47;;;;;;;2.00;0.93;;;3.70;99.90;;;;;;5026849;28;20477;-58
2021/12/03 03:54:13;;;;;;;1.83;0.80;;;3.60;99.90;;;;;;5025294;28;20172;-58
2021/12/03 03:56:40;;;;;;;1.13;0.70;;;3.60;99.90;;;;;;5026839;28;20076;-58
2021/12/03 03:59:07;;;;;;;0.85;0.65;;;3.50;99.90;;;;;;5026274;28;20045;-58
2021/12/03 04:01:34;;;;;;;0.80;0.60;;;3.50;99.90;;;;;;5026035;28;20053;-58
2021/12/03 04:04:01;;;;;;;1.30;0.70;;;3.40;99.90;;;;;;5024848;28;20045;-58
2021/12/03 04:06:28;;;;;;;1.48;0.80;;;3.40;99.90;;;;;;5026596;28;20077;-58
2021/12/03 04:08:55;;;;;;;1.67;0.80;;;3.30;99.90;;;;;;5024813;28;20080;-58
2021/12/03 04:11:22;;;;;;;1.08;0.50;;;3.30;99.90;;;;;;5026615;28;20076;-58
2021/12/03 04:13:49;;;;;;;1.85;0.60;;;3.30;99.90;;;;;;5025567;28;20102;-58
2021/12/03 04:16:16;;;;;;;0.70;0.63;;;3.30;99.90;;;;;;5025723;28;20148;-58
2021/12/03 04:18:43;;;;;;;0.63;0.60;;;3.30;99.90;;;;;;5026046;28;20544;-58
2021/12/03 04:21:10;;;;;;;0.82;0.63;;;3.20;99.90;;;;;;5026077;28;20464;-58
2021/12/03 04:23:37;;;;;;;1.33;0.77;;;3.30;99.90;;;;;;5026792;28;20081;-58
2021/12/03 04:26:03;;;;;;;1.08;0.70;;;3.30;99.90;;;;;;5026202;28;20073;-56
2021/12/03 04:28:30;;;;;;;1.13;0.63;;;3.30;99.90;;;;;;5025720;28;20759;-57
2021/12/03 04:30:57;;;;;;;1.83;0.80;;;3.30;99.90;;;;;;5025779;28;20041;-58
2021/12/03 04:33:24;;;;;;;1.67;0.60;;;3.30;99.90;;;;;;5025878;28;20159;-58
2021/12/03 04:35:50;;;;;;;2.25;0.80;;;3.30;99.90;;;;;;5026786;28;20068;-57
2021/12/03 04:38:17;;;;;;;0.90;0.40;;;3.30;99.90;;;;;;5025670;28;20056;-58
2021/12/03 04:40:45;;;;;;;0.65;0.43;;;3.30;99.90;;;;;;5025901;28;20075;-57
2021/12/03 04:43:12;;;;;;;0.77;0.43;;;3.30;99.90;;;;;;5024203;28;20049;-57
2021/12/03 04:45:39;;;;;;;0.85;0.40;;;3.40;99.90;;;;;;5025298;28;20146;-57
2021/12/03 04:48:06;;;;;;;1.58;0.70;;;3.40;99.90;;;;;;5024345;28;20084;-57
2021/12/03 04:50:35;;;;;;;0.93;0.52;;;3.40;99.90;;;;;;5024974;28;20081;-57
2021/12/03 04:53:02;;;;;;;0.85;0.70;;;3.40;99.90;;;;;;5025767;28;20081;-57
2021/12/03 04:55:29;;;;;;;0.98;0.60;;;3.40;99.90;;;;;;5023692;28;20081;-58
2021/12/03 04:57:56;;;;;;;1.23;0.60;;;3.50;99.90;;;;;;5026338;28;20081;-57
2021/12/03 05:00:35;;;;;;;0.77;0.60;;;3.50;99.90;;;;;;5024765;28;20445;-58
2021/12/03 05:03:02;;;;;;;0.80;0.60;;;3.50;99.90;;;;;;5025875;28;20316;-58
2021/12/03 05:05:33;;;;;;;1.38;0.60;;;3.50;99.90;;;;;;5023697;28;20061;-58
2021/12/03 05:08:10;;;;;;;1.00;0.63;;;3.50;99.90;;;;;;5024266;28;20123;-55
2021/12/03 05:10:39;;;;;;;0.80;0.70;;;3.60;99.90;;;;;;5025346;28;20119;-58
2021/12/03 05:13:11;;;;;;;1.75;0.50;;;3.60;99.90;;;;;;5023995;28;20081;-57
2021/12/03 05:15:38;;;;;;;0.50;0.45;;;3.60;99.90;;;;;;5024367;28;20541;-57
2021/12/03 05:18:08;;;;;;;0.68;0.50;;;3.70;99.90;;;;;;5025427;28;20045;-57
2021/12/03 05:20:35;;;;;;;0.95;0.60;;;3.60;99.90;;;;;;5005396;28;20116;-59
2021/12/03 05:23:02;;;;;;;1.08;0.65;;;3.70;99.90;;;;;;5015191;28;20096;-57
2021/12/03 05:25:28;;;;;;;1.55;0.65;;;3.70;99.90;;;;;;5029434;28;20132;-58
2021/12/03 05:27:55;;;;;;;1.42;0.70;;;3.80;99.90;;;;;;5029129;28;20138;-57
2021/12/03 05:30:22;;;;;;;1.25;0.52;;;3.80;99.90;;;;;;5026559;28;20104;-57
2021/12/03 05:32:49;;;;;;;1.95;0.70;;;3.80;99.90;;;;;;5029317;28;20080;-58
2021/12/03 05:35:16;;;;;;;0.85;0.50;;;3.90;99.90;;;;;;5027133;28;20046;-57
2021/12/03 05:37:43;;;;;;;0.50;0.45;;;3.90;99.90;;;;;;5026545;28;20152;-57
2021/12/03 05:40:10;;;;;;;0.98;0.55;;;3.90;99.90;;;;;;5025615;28;20120;-57
2021/12/03 05:42:38;;;;;;;0.75;0.47;;;4.00;99.90;;;;;;5026103;28;20160;-58
2021/12/03 05:45:06;;;;;;;1.17;0.50;;;4.00;99.90;;;;;;5026215;28;20088;-58
2021/12/03 05:47:33;;;;;;;1.27;0.50;;;4.10;99.90;;;;;;5019220;28;20048;-58
2021/12/03 05:50:00;;;;;;;1.58;0.70;;;4.10;99.90;;;;;;5017547;28;20215;-58
2021/12/03 05:52:26;;;;;;;2.00;0.40;;;4.20;99.90;;;;;;5020271;28;20049;-58
2021/12/03 05:54:53;;;;;;;1.08;0.50;;;4.20;99.90;;;;;;5020851;28;20132;-58
2021/12/03 05:57:20;;;;;;;1.17;0.40;;;4.20;99.90;;;;;;5020750;28;20045;-58
2021/12/03 05:59:47;;;;;;;0.40;0.40;;;4.20;99.90;;;;;;5020272;28;20080;-58
2021/12/03 06:02:13;;;;;;;0.80;0.35;;;4.20;99.90;;;;;;5020955;28;20085;-56
2021/12/03 06:04:40;;;;;;;0.38;0.30;;;4.30;99.90;;;;;;5020285;28;20046;-58
2021/12/03 06:07:07;;;;;;;0.90;0.40;;;4.30;99.90;;;;;;5020651;28;20695;-58
2021/12/03 06:09:34;;;;;;;1.63;0.40;;;4.30;99.90;;;;;;5020031;28;20088;-58
2021/12/03 06:12:01;;;;;;;0.75;0.30;;;4.40;99.90;;;;;;5020865;28;20049;-58
2021/12/03 06:14:28;;;;;;;0.35;0.22;;;4.40;99.90;;;;;;5019934;28;20307;-58
2021/12/03 06:16:56;;;;;;;0.43;0.40;;;4.40;99.90;;;;;;5021211;28;20057;-59
2021/12/03 06:19:23;;;;;;;0.45;0.32;;;4.50;99.90;;;;;;5016936;28;20674;-59
2021/12/03 06:21:50;;;;;;;0.80;0.32;;;4.50;99.90;;;;;;5021415;28;20465;-58
2021/12/03 06:24:17;;;;;;;0.90;0.70;;;4.60;99.90;;;;;;5021199;28;20096;-58
2021/12/03 06:26:44;;;;;;;0.28;0.20;;;4.60;99.90;;;;;;5021507;28;20100;-59
2021/12/03 06:29:10;;;;;;;0.65;0.40;;;4.70;99.90;;;;;;5020391;28;20156;-56
2021/12/03 06:31:37;;;;;;;0.40;0.40;;;4.70;99.90;;;;;;5021613;28;20081;-58
2021/12/03 06:34:04;;;;;;;1.42;0.50;;;4.70;99.90;;;;;;5020592;28;20046;-54
2021/12/03 06:36:31;;;;;;;0.55;0.43;;;4.70;99.90;;;;;;5020715;28;20519;-58
2021/12/03 06:38:57;;;;;;;0.73;0.40;;;4.80;99.90;;;;;;5018032;28;20081;-58
2021/12/03 06:41:24;;;;;;;0.47;0.40;;;4.90;99.90;;;;;;5020024;28;20140;-58
2021/12/03 06:43:51;;;;;;;0.60;0.40;;;4.90;99.90;;;;;;5020279;28;20085;-58
2021/12/03 06:46:18;;;;;;;0.40;0.40;;;4.90;99.90;;;;;;5021270;28;20046;-58
2021/12/03 06:48:45;;;;;;;0.85;0.57;;;5.00;99.90;;;;;;5020487;28;20760;-58
2021/12/03 06:51:12;;;;;;;0.45;0.40;;;5.00;99.90;;;;;;5021120;28;20618;-57
2021/12/03 06:54:03;;;;;;;0.57;0.43;;;5.00;99.90;;;;;;5019885;28;20132;-58
2021/12/03 06:56:33;;;;;;;1.35;0.52;;;5.10;99.90;;;;;;5021619;28;20132;-58
2021/12/03 06:59:00;;;;;;;1.70;0.47;;;5.10;99.90;;;;;;5020366;28;20548;-63
2021/12/03 07:01:26;;;;;;;0.93;0.40;;;5.20;99.90;;;;;;5020178;28;20561;-58
2021/12/03 07:03:54;;;;;;;0.30;0.30;;;5.30;99.90;;;;;;5018644;28;20140;-58
2021/12/03 07:06:21;;;;;;;0.50;0.28;;;5.30;99.90;;;;;;5021269;28;20129;-58
2021/12/03 07:08:47;;;;;;;0.20;0.20;;;5.40;99.90;;;;;;5020540;28;20524;-58
2021/12/03 07:11:14;;;;;;;0.95;0.50;;;5.40;99.90;;;;;;5018961;28;20069;-58
2021/12/03 07:13:41;;;;;;;0.65;0.40;;;5.50;99.90;;;;;;5019582;28;20544;-58
2021/12/03 07:16:08;;;;;;;0.38;0.30;;;5.50;99.90;;;;;;5016698;28;20131;-58
2021/12/03 07:18:35;;;;;;;0.30;0.30;;;5.60;99.90;;;;;;5019737;28;20129;-58
2021/12/03 07:21:02;;;;;;;0.90;0.40;;;5.70;99.90;;;;;;5019255;28;20076;-58
2021/12/03 07:23:29;;;;;;;0.68;0.30;;;5.70;99.90;;;;;;5020987;28;20132;-59
2021/12/03 07:25:57;;;;;;;0.55;0.50;;;5.70;99.90;;;;;;5020269;28;20085;-58
2021/12/03 07:28:24;;;;;;;0.30;0.28;;;5.80;99.90;;;;;;5019344;28;20176;-58
2021/12/03 07:30:51;;;;;;;0.38;0.38;;;5.80;99.90;;;;;;5018927;28;20602;-58
2021/12/03 07:33:18;;;;;;;0.60;0.32;;;5.90;99.90;;;;;;5020176;28;20057;-59
2021/12/03 07:35:46;;;;;;;0.50;0.50;;;5.90;99.90;;;;;;5020246;28;20146;-58
2021/12/03 07:38:15;;;;;;;0.40;0.40;;;6.00;99.90;;;;;;5019212;28;20543;-59
2021/12/03 07:40:42;;;;;;;0.73;0.30;;;6.00;99.90;;;;;;5018590;28;20083;-58
2021/12/03 07:43:09;;;;;;;0.63;0.20;;;6.10;99.90;;;;;;5019155;28;20148;-58
2021/12/03 07:45:36;;;;;;;0.30;0.30;;;6.10;99.90;;;;;;5019344;28;20136;-58
2021/12/03 07:48:04;;;;;;;0.35;0.35;;;6.20;99.90;;;;;;5019717;28;20132;-60
2021/12/03 07:50:35;;;;;;;0.82;0.38;;;6.20;99.90;;;;;;5020234;28;20045;-57
2021/12/03 07:53:03;;;;;;;0.75;0.38;;;6.30;99.90;;;;;;5019235;28;20129;-58
2021/12/03 07:55:30;;;;;;;0.50;0.30;;;6.30;99.90;;;;;;5019812;28;20608;-58
2021/12/03 07:58:01;;;;;;;0.38;0.30;;;6.40;99.90;;;;;;5019452;28;20400;-58
2021/12/03 08:00:28;;;;;;;0.45;0.30;;;6.40;99.90;;;;;;5018750;28;20152;-59
2021/12/03 08:03:14;;;;;;;0.40;0.40;;;6.50;99.90;;;;;;5004341;28;20468;-58
2021/12/03 08:05:41;;;;;;;0.30;0.30;;;6.50;99.90;;;;;;5019365;28;20050;-59
2021/12/03 08:08:08;;;;;;;0.68;0.32;;;6.60;99.90;;;;;;5000917;28;20164;-62
2021/12/03 08:10:35;;;;;;;0.45;0.45;;;6.60;99.90;;;;;;5019364;28;20080;-59
2021/12/03 08:13:02;;;;;;;0.40;0.38;;;6.70;99.90;;;;;;5019129;28;20073;-59
2021/12/03 08:15:30;;;;;;;0.30;0.30;;;6.70;99.90;;;;;;4996611;28;20050;-58
2021/12/03 08:17:57;;;;;;;0.35;0.35;;;6.80;99.90;;;;;;5019926;28;20099;-58
2021/12/03 08:20:24;;;;;;;1.08;0.52;;;6.80;99.90;;;;;;5019681;28;20130;-59
2021/12/03 08:22:52;;;;;;;0.43;0.40;;;6.80;99.90;;;;;;5019688;28;20053;-59
2021/12/03 08:25:18;;;;;;;0.55;0.40;;;6.90;99.90;;;;;;5019855;28;20076;-59
2021/12/03 08:27:45;;;;;;;0.45;0.38;;;6.90;99.90;;;;;;5019039;28;20110;-58
2021/12/03 08:30:13;;;;;;;0.88;0.40;;;6.90;99.90;;;;;;5016498;28;20053;-58
2021/12/03 08:32:42;;;;;;;0.57;0.40;;;7.00;99.90;;;;;;5018391;28;20482;-59
2021/12/03 08:35:09;;;;;;;1.05;0.50;;;7.00;99.90;;;;;;5018223;28;20049;-58
2021/12/03 08:37:37;;;;;;;0.22;0.22;;;7.00;99.90;;;;;;5019086;28;20493;-58
2021/12/03 08:40:05;;;;;;;0.50;0.40;;;7.10;99.90;;;;;;5019325;28;20085;-59
2021/12/03 08:42:32;;;;;;;0.75;0.55;;;7.10;99.90;;;;;;5018335;28;20045;-58
2021/12/03 08:44:59;;;;;;;0.60;0.50;;;7.20;99.90;;;;;;5018847;28;20128;-59
2021/12/03 08:47:26;;;;;;;0.20;0.20;;;7.20;99.90;;;;;;5019099;28;20164;-59
2021/12/03 08:49:56;;;;;;;0.40;0.40;;;7.30;99.90;;;;;;5019448;28;20190;-59
2021/12/03 08:52:49;;;;;;;0.85;0.38;;;7.30;99.90;;;;;;5020219;28;20133;-58
2021/12/03 08:55:16;;;;;;;0.65;0.50;;;7.40;99.90;;;;;;5019374;28;20041;-58
2021/12/03 08:57:43;;;;;;;0.30;0.30;;;7.40;99.90;;;;;;5018332;28;20131;-58
2021/12/03 09:00:12;;;;;;;1.55;0.80;;;7.50;99.90;;;;;;5018065;28;20072;-58
2021/12/03 09:02:40;;;;;;;1.15;0.50;;;7.50;99.90;;;;;;5018408;28;20084;-60
2021/12/03 09:05:07;;;;;;;1.00;0.50;;;7.50;99.90;;;;;;5017428;28;20095;-58
2021/12/03 09:07:34;;;;;;;2.42;0.40;;;7.50;99.90;;;;;;5019545;28;20057;-63
2021/12/03 09:10:04;;;;;;;1.40;0.55;;;7.60;99.90;;;;;;5011961;28;20542;-57
2021/12/03 09:12:31;;;;;;;1.05;0.60;;;7.60;99.90;;;;;;5015907;28;20757;-55
2021/12/03 09:15:00;;;;;;;0.75;0.50;;;7.60;99.90;;;;;;5003526;28;20050;-58
2021/12/03 09:24:57;;;;;;;1.67;0.57;;;7.80;99.90;;;;;;5017096;28;20104;-58
2021/12/03 09:27:24;;;;;;;1.50;0.70;;;7.80;99.90;;;;;;5018334;28;20132;-58
2021/12/03 09:29:54;;;;;;;2.85;0.73;;;7.80;99.90;;;;;;5013685;28;20202;-58
2021/12/03 09:32:26;;;;;;;1.50;0.60;;;7.80;99.90;;;;;;5000686;28;20885;-58
2021/12/03 09:34:53;;;;;;;1.10;0.50;;;7.90;99.90;;;;;;5006079;28;20136;-58
2021/12/03 09:37:20;;;;;;;1.25;0.80;;;7.90;99.90;;;;;;5020364;28;20191;-58
2021/12/03 09:39:46;;;;;;;1.95;0.65;;;7.90;99.90;;;;;;5019182;28;20136;-59
2021/12/03 09:42:15;;;;;;;3.97;0.80;;;7.90;99.90;;;;;;4998349;28;20050;-58
2021/12/03 09:44:44;;;;;;;1.92;0.73;;;8.00;99.90;;;;;;5017032;28;20450;-59
2021/12/03 09:47:12;;;;;;;2.25;0.95;;;8.00;99.90;;;;;;5016319;28;20801;-62
2021/12/03 09:49:40;;;;;;;1.33;0.95;;;8.10;99.90;;;;;;5018119;28;20081;-58
2021/12/03 09:52:31;;;;;;;1.48;0.65;;;8.10;99.90;;;;;;5020024;28;20088;-58
2021/12/03 09:55:02;;;;;;;1.17;0.80;;;8.20;99.90;;;;;;5007568;28;20104;-59
2021/12/03 09:57:37;;;;;;;1.60;0.80;;;8.40;99.90;;;;;;5019808;28;20057;-63
2021/12/03 10:55:47;;;;;;;1.42;0.63;;;9.70;99.90;;;;;;5022718;28;20072;-57
2021/12/03 10:58:41;;;;;;;1.02;0.80;;;9.70;99.90;;;;;;5022343;28;20087;-58
2021/12/03 11:28:31;;;;;;;2.42;0.70;;;9.90;99.90;;;;;;5020206;28;20448;-59
2021/12/03 11:58:58;;;;;;;1.77;1.23;;;10.20;99.90;;;;;;5019504;28;20045;-58
2021/12/03 12:04:43;;;;;;;1.10;0.90;;;10.30;99.90;;;;;;5019194;28;20050;-58
2021/12/03 13:24:16;;;;;;;2.28;1.45;;;10.50;99.90;;;;;;5006074;28;19972;-59
2021/12/03 14:15:03;;;;;;;1.40;1.20;;;10.10;99.90;;;;;;5003521;28;20884;-59
2021/12/03 14:39:38;;;;;;;2.47;1.38;;;9.80;99.90;;;;;;5021963;28;20111;-58
2021/12/03 14:45:09;;;;;;;2.60;1.42;;;9.80;99.90;;;;;;5021017;28;20124;-59
2021/12/03 14:48:08;;;;;;;2.83;2.22;;;9.70;99.90;;;;;;5012041;28;20085;-58
2021/12/03 14:53:36;;;;;;;1.75;1.42;;;9.60;99.90;;;;;;5022884;28;20163;-58
2021/12/03 14:56:09;;;;;;;1.58;1.25;;;9.60;99.90;;;;;;5012600;28;20391;-59
2021/12/03 15:06:50;;;;;;;2.20;1.30;;;9.50;99.90;;;;;;5018835;28;20057;-59
2021/12/03 15:09:27;;;;;;;2.60;1.70;;;9.50;99.90;;;;;;5018169;28;20076;-58
2021/12/03 15:25:35;;;;;;;2.33;1.67;;;9.50;99.90;;;;;;5014089;28;20085;-58
2021/12/03 15:31:07;;;;;;;2.90;1.88;;;9.50;99.90;;;;;;5013956;28;20061;-59
2021/12/03 15:36:11;;;;;;;2.65;1.90;;;9.50;99.90;;;;;;5016973;28;20593;-58
2021/12/03 15:58:01;;;;;;;2.10;1.58;;;9.50;99.90;;;;;;5017012;28;20127;-58
2021/12/03 16:06:22;;;;;;;2.10;1.50;;;9.50;99.90;;;;;;5016979;28;20061;-58
2021/12/03 16:08:50;;;;;;;3.53;2.17;;;9.50;99.90;;;;;;5015953;28;20795;-58
2021/12/03 16:11:34;;;;;;;4.78;2.80;;;9.50;99.90;;;;;;5016914;28;20168;-58
2021/12/03 16:22:27;;;;;;;7.38;3.80;;;9.40;99.90;;;;;;5018093;28;20112;-59
2021/12/03 16:44:45;;;;;;;5.22;3.22;;;9.30;99.90;;;;;;5016714;28;20146;-58
2021/12/03 16:47:15;;;;;;;4.25;2.95;;;9.40;99.90;;;;;;5017502;28;20582;-59
2021/12/03 16:50:12;;;;;;;3.95;2.97;;;9.30;99.90;;;;;;5016949;28;20299;-59
2021/12/03 16:52:36;;;;;;;4.63;3.73;;;9.30;99.90;;;;;;5017112;28;20132;-58
2021/12/03 16:55:12;;;;;;;5.32;3.92;;;9.30;99.90;;;;;;5017251;28;20453;-59
2021/12/03 16:57:40;;;;;;;5.15;4.18;;;9.30;99.90;;;;;;5016806;28;20132;-59
2021/12/03 17:03:37;;;;;;;4.70;3.40;;;9.30;99.90;;;;;;5016340;28;20214;-58
2021/12/03 17:13:56;;;;;;;4.60;3.45;;;9.20;99.90;;;;;;5014869;28;20156;-58
2021/12/03 17:17:15;;;;;;;4.28;3.00;;;9.20;99.90;;;;;;5014134;28;20437;-57
2021/12/03 17:48:57;;;;;;;5.10;3.58;;;8.70;99.90;;;;;;5019332;28;20077;-60
2021/12/03 17:51:45;;;;;;;5.72;4.10;;;8.60;99.90;;;;;;5020681;28;20568;-58
2021/12/03 17:54:41;;;;;;;4.93;3.53;;;8.60;99.90;;;;;;5020753;28;20056;-61
2021/12/03 17:57:58;;;;;;;3.97;3.05;;;8.50;99.90;;;;;;5017871;28;20080;-54
2021/12/03 17:59:55;;;;;;;5.30;3.85;;;8.50;99.90;;;;;;5015184;28;20045;-57
2021/12/03 18:02:42;;;;;;;4.22;3.28;;;8.40;99.90;;;;;;5020401;28;20222;-57
2021/12/03 18:07:53;;;;;;;4.53;3.55;;;8.40;99.90;;;;;;5021195;28;20083;-58
2021/12/03 18:43:38;;;;;;;6.05;4.85;;;8.10;99.90;;;;;;5020067;28;20077;-57
2021/12/03 18:46:21;;;;;;;8.05;5.15;;;8.10;99.90;;;;;;5018896;28;20061;-56
2021/12/03 18:56:51;;;;;;;6.43;4.75;;;8.20;99.90;;;;;;5017550;28;20484;-58
2021/12/03 18:59:18;;;;;;;6.80;5.60;;;8.20;99.90;;;;;;5019990;28;20468;-57
2021/12/03 19:01:45;;;;;;;7.63;5.30;;;8.20;99.90;;;;;;5021954;28;20485;-57
2021/12/03 19:06:54;;;;;;;6.78;4.97;;;8.20;99.90;;;;;;5020868;28;20060;-57
2021/12/03 19:09:39;;;;;;;;;;;8.20;99.90;;;;;;5012522;28;20124;-57
2021/12/03 19:12:08;;;;;;;;;;;8.20;99.90;;;;;;5021562;28;20420;-55
2021/12/03 19:14:42;;;;;;;5.15;4.03;;;8.20;99.90;;;;;;5018945;28;19987;-58
2021/12/03 19:17:09;;;;;;;5.95;4.50;;;8.20;99.90;;;;;;5016335;28;20548;-57
2021/12/03 19:19:41;;;;;;;7.45;5.03;;;8.10;99.90;;;;;;5018912;28;20714;-58
2021/12/03 19:22:08;;;;;;;6.13;4.72;;;8.10;99.90;;;;;;5018303;28;20081;-57
2021/12/03 19:24:35;;;;;;;8.63;5.13;;;8.10;99.90;;;;;;5019577;28;20132;-58
2021/12/03 19:27:02;;;;;;;7.00;5.50;;;8.10;99.90;;;;;;5020900;28;20080;-57
2021/12/03 19:29:32;;;;;;;7.38;5.63;;;8.10;99.90;;;;;;5019024;28;20053;-57
2021/12/03 19:31:58;;;;;;;7.85;5.50;;;8.10;99.90;;;;;;5021425;28;20554;-57
2021/12/03 19:34:25;;;;;;;7.38;5.47;;;8.10;99.90;;;;;;5020799;28;20442;-58
2021/12/03 19:36:52;;;;;;;7.28;5.57;;;8.00;99.90;;;;;;5021131;28;20635;-56
2021/12/03 19:39:19;;;;;;;6.35;5.22;;;8.00;99.90;;;;;;5020803;28;20154;-58
2021/12/03 19:44:16;;;;;;;5.93;5.10;;;8.00;99.90;;;;;;5018255;28;20143;-56
2021/12/03 19:46:46;;;;;;;6.40;5.15;;;8.00;99.90;;;;;;5020944;28;20626;-57
2021/12/03 19:49:19;;;;;;;6.70;5.20;;;7.90;99.90;;;;;;5020422;28;20088;-57
2021/12/03 19:51:49;;;;;;;;;;;7.90;99.90;;;;;;5021503;28;20062;-57
2021/12/03 19:54:16;;;;;;;5.72;4.20;;;7.90;99.90;;;;;;5020308;28;20062;-57
2021/12/03 19:56:43;;;;;;;6.03;4.32;;;7.90;99.90;;;;;;5020880;28;20130;-57
2021/12/03 19:59:10;;;;;;;6.00;4.85;;;7.90;99.90;;;;;;5020017;28;20132;-55
2021/12/03 20:01:37;;;;;;;6.60;4.57;;;7.90;99.90;;;;;;5020054;28;20129;-57
2021/12/03 20:04:05;;;;;;;7.22;5.05;;;7.90;99.90;;;;;;5019797;28;20168;-56
2021/12/03 20:06:31;;;;;;;5.95;4.85;;;7.90;99.90;;;;;;5020249;28;20088;-57
2021/12/03 20:09:01;;;;;;;7.15;4.63;;;7.90;99.90;;;;;;5020317;28;20119;-57
2021/12/03 20:11:38;;;;;;;6.88;5.50;;;7.90;99.90;;;;;;5020030;28;20061;-55
2021/12/03 20:14:06;;;;;;;4.85;4.35;;;7.90;99.90;;;;;;5019298;28;20085;-59
2021/12/03 20:16:41;;;;;;;9.07;5.78;;;7.90;99.90;;;;;;5018575;28;20076;-58
2021/12/03 20:22:12;;;;;;;8.50;6.22;;;7.80;99.90;;;;;;5019691;28;20057;-58
2021/12/03 20:25:10;;;;;;;7.03;5.22;;;7.80;99.90;;;;;;5019678;28;20454;-58
2021/12/03 20:27:47;;;;;;;7.78;5.32;;;7.80;99.90;;;;;;5019128;28;20130;-58
2021/12/03 20:30:25;;;;;;;6.72;5.00;;;7.80;99.90;;;;;;5018929;28;20501;-58
2021/12/03 20:33:26;;;;;;;8.18;5.15;;;7.70;99.90;;;;;;5019658;28;20156;-58
2021/12/03 20:38:32;;;;;;;6.60;5.35;;;7.70;99.90;;;;;;5019004;28;20567;-57
2021/12/03 20:41:03;;;;;;;6.63;5.50;;;7.70;99.90;;;;;;5018905;28;20128;-57